Main page
METAR-TAF:

METAR-TAF

Airports :

Ruben Berta International Airport

Uruguaiana, Rio Grande do Sul, Brazil

latitude: 29-47S, longitude: 057-02W, elevation: 74 m

METAR: missing

Time: 01:04 (04:04 UTC)

Forecast

The report was made 13 hours and 4 minutes ago, at 15:00 UTC
Forecast valid from 25 at 18 UTC to 26 at 06 UTC
Wind 8 kt from the East
Visibility 10 km or more
Few clouds at a height of 2000 ft
Becoming
from 25 at 22 UTC to 25 at 24 UTC
Wind 5 kt from the East

TAF: SBUG 251500Z 2518/2606 08008KT 9999 FEW020 TX23/2518Z TN11/2606Z BECMG 2522/2524 09005KT RMK PDZ

Weather observations and forecasts of more than 4000 airports (METAR and TAF reports).

The available stations are represented by yellow and red dots on the map.

Hover mouse over dot to see the name of the station.

Then click to see weather observations and forecasts.

To change the map : click on the green buttons with a black cross to zoom in, on the green button with a dash to zoom out, or on the green arrows for adjacent maps.


METAR-TAF: